sensor_id;sensor_type;location;lat;lon;timestamp;temperature;humidity
9768;DHT22;4923;52.520;13.494;2022-09-09T00:02:28;14.40;1.00
9768;DHT22;4923;52.520;13.494;2022-09-09T00:05:22;14.40;1.00
9768;DHT22;4923;52.520;13.494;2022-09-09T00:08:19;14.40;1.00
9768;DHT22;4923;52.520;13.494;2022-09-09T00:11:11;14.40;1.00
9768;DHT22;4923;52.520;13.494;2022-09-09T00:14:00;14.40;1.00
9768;DHT22;4923;52.520;13.494;2022-09-09T00:16:55;14.30;1.00
9768;DHT22;4923;52.520;13.494;2022-09-09T00:19:47;14.30;1.00
9768;DHT22;4923;52.520;13.494;2022-09-09T00:22:38;14.30;1.00
9768;DHT22;4923;52.520;13.494;2022-09-09T00:25:30;14.30;1.00
9768;DHT22;4923;52.520;13.494;2022-09-09T00:28:22;14.30;1.00
9768;DHT22;4923;52.520;13.494;2022-09-09T00:31:13;14.30;1.00
9768;DHT22;4923;52.520;13.494;2022-09-09T00:34:09;14.30;1.00
9768;DHT22;4923;52.520;13.494;2022-09-09T00:36:58;14.30;1.00
9768;DHT22;4923;52.520;13.494;2022-09-09T00:39:47;14.30;1.00
9768;DHT22;4923;52.520;13.494;2022-09-09T00:42:41;14.20;1.00
9768;DHT22;4923;52.520;13.494;2022-09-09T00:45:42;14.20;1.00
9768;DHT22;4923;52.520;13.494;2022-09-09T00:48:37;14.20;1.00
9768;DHT22;4923;52.520;13.494;2022-09-09T00:51:40;14.10;1.00
9768;DHT22;4923;52.520;13.494;2022-09-09T00:54:40;14.10;1.00
9768;DHT22;4923;52.520;13.494;2022-09-09T00:57:34;14.10;1.00
9768;DHT22;4923;52.520;13.494;2022-09-09T01:00:23;14.10;1.00
9768;DHT22;4923;52.520;13.494;2022-09-09T01:03:22;14.10;1.00
9768;DHT22;4923;52.520;13.494;2022-09-09T01:06:15;14.10;1.00
9768;DHT22;4923;52.520;13.494;2022-09-09T01:09:17;14.10;1.00
9768;DHT22;4923;52.520;13.494;2022-09-09T01:12:13;14.10;1.00
9768;DHT22;4923;52.520;13.494;2022-09-09T01:15:08;14.10;1.00
9768;DHT22;4923;52.520;13.494;2022-09-09T01:18:02;14.00;1.00
9768;DHT22;4923;52.520;13.494;2022-09-09T01:20:58;14.00;1.00
9768;DHT22;4923;52.520;13.494;2022-09-09T01:24:03;14.00;1.00
9768;DHT22;4923;52.520;13.494;2022-09-09T01:26:55;14.00;1.00
9768;DHT22;4923;52.520;13.494;2022-09-09T01:29:43;13.90;1.00
9768;DHT22;4923;52.520;13.494;2022-09-09T01:32:40;13.90;1.00
9768;DHT22;4923;52.520;13.494;2022-09-09T01:35:34;14.00;1.00
9768;DHT22;4923;52.520;13.494;2022-09-09T01:38:24;14.00;1.00
9768;DHT22;4923;52.520;13.494;2022-09-09T01:41:12;14.00;1.00
9768;DHT22;4923;52.520;13.494;2022-09-09T01:44:00;14.00;1.00
9768;DHT22;4923;52.520;13.494;2022-09-09T01:46:47;13.90;1.00
9768;DHT22;4923;52.520;13.494;2022-09-09T01:49:35;13.90;1.00
9768;DHT22;4923;52.520;13.494;2022-09-09T01:52:22;13.90;1.00
9768;DHT22;4923;52.520;13.494;2022-09-09T01:55:09;13.80;1.00
9768;DHT22;4923;52.520;13.494;2022-09-09T01:58:08;13.80;1.00
9768;DHT22;4923;52.520;13.494;2022-09-09T02:01:03;13.90;1.00
9768;DHT22;4923;52.520;13.494;2022-09-09T02:03:56;13.80;1.00
9768;DHT22;4923;52.520;13.494;2022-09-09T02:06:44;13.80;1.00
9768;DHT22;4923;52.520;13.494;2022-09-09T02:09:33;13.80;1.00
9768;DHT22;4923;52.520;13.494;2022-09-09T02:12:23;13.70;1.00
9768;DHT22;4923;52.520;13.494;2022-09-09T02:15:17;13.80;1.00
9768;DHT22;4923;52.520;13.494;2022-09-09T02:18:09;13.80;1.00
9768;DHT22;4923;52.520;13.494;2022-09-09T02:20:57;13.80;1.00
9768;DHT22;4923;52.520;13.494;2022-09-09T02:23:47;13.80;1.00
9768;DHT22;4923;52.520;13.494;2022-09-09T02:26:40;13.70;1.00
9768;DHT22;4923;52.520;13.494;2022-09-09T02:29:30;13.70;1.00
9768;DHT22;4923;52.520;13.494;2022-09-09T02:32:21;13.70;1.00
9768;DHT22;4923;52.520;13.494;2022-09-09T02:35:12;13.70;1.00
9768;DHT22;4923;52.520;13.494;2022-09-09T02:38:05;13.70;1.00
9768;DHT22;4923;52.520;13.494;2022-09-09T02:40:53;13.70;1.00
9768;DHT22;4923;52.520;13.494;2022-09-09T02:43:41;13.70;1.00
9768;DHT22;4923;52.520;13.494;2022-09-09T02:46:39;13.60;1.00
9768;DHT22;4923;52.520;13.494;2022-09-09T02:49:38;13.60;1.00
9768;DHT22;4923;52.520;13.494;2022-09-09T02:52:33;13.60;1.00
9768;DHT22;4923;52.520;13.494;2022-09-09T02:55:27;13.60;1.00
9768;DHT22;4923;52.520;13.494;2022-09-09T02:58:17;13.60;1.00
9768;DHT22;4923;52.520;13.494;2022-09-09T03:01:05;13.60;1.00
9768;DHT22;4923;52.520;13.494;2022-09-09T03:03:52;13.60;1.00
9768;DHT22;4923;52.520;13.494;2022-09-09T03:06:40;13.60;1.00
9768;DHT22;4923;52.520;13.494;2022-09-09T03:09:29;13.50;1.00
9768;DHT22;4923;52.520;13.494;2022-09-09T03:12:16;13.50;1.00
9768;DHT22;4923;52.520;13.494;2022-09-09T03:15:04;13.50;1.00
9768;DHT22;4923;52.520;13.494;2022-09-09T03:17:51;13.50;1.00
9768;DHT22;4923;52.520;13.494;2022-09-09T03:20:38;13.50;1.00
9768;DHT22;4923;52.520;13.494;2022-09-09T03:23:27;13.40;1.00
9768;DHT22;4923;52.520;13.494;2022-09-09T03:26:16;13.40;1.00
9768;DHT22;4923;52.520;13.494;2022-09-09T03:29:03;13.40;1.00
9768;DHT22;4923;52.520;13.494;2022-09-09T03:31:52;13.40;1.00
9768;DHT22;4923;52.520;13.494;2022-09-09T03:34:39;13.30;1.00
9768;DHT22;4923;52.520;13.494;2022-09-09T03:37:26;13.30;1.00
9768;DHT22;4923;52.520;13.494;2022-09-09T03:40:13;13.30;1.00
9768;DHT22;4923;52.520;13.494;2022-09-09T03:43:02;13.30;1.00
9768;DHT22;4923;52.520;13.494;2022-09-09T03:45:49;13.20;1.00
9768;DHT22;4923;52.520;13.494;2022-09-09T03:48:36;13.20;1.00
9768;DHT22;4923;52.520;13.494;2022-09-09T03:51:23;13.20;1.00
9768;DHT22;4923;52.520;13.494;2022-09-09T03:54:10;13.20;1.00
9768;DHT22;4923;52.520;13.494;2022-09-09T03:56:57;13.20;1.00
9768;DHT22;4923;52.520;13.494;2022-09-09T03:59:45;13.10;1.00
9768;DHT22;4923;52.520;13.494;2022-09-09T04:02:32;13.10;1.00
9768;DHT22;4923;52.520;13.494;2022-09-09T04:05:19;13.10;1.00
9768;DHT22;4923;52.520;13.494;2022-09-09T04:08:06;13.10;1.00
9768;DHT22;4923;52.520;13.494;2022-09-09T04:10:54;13.10;1.00
9768;DHT22;4923;52.520;13.494;2022-09-09T04:13:43;13.10;1.00
9768;DHT22;4923;52.520;13.494;2022-09-09T04:16:32;13.10;1.00
9768;DHT22;4923;52.520;13.494;2022-09-09T04:19:19;13.10;1.00
9768;DHT22;4923;52.520;13.494;2022-09-09T04:22:06;13.00;1.00
9768;DHT22;4923;52.520;13.494;2022-09-09T04:24:53;13.00;1.00
9768;DHT22;4923;52.520;13.494;2022-09-09T04:27:41;13.00;1.00
9768;DHT22;4923;52.520;13.494;2022-09-09T04:30:28;13.00;1.00
9768;DHT22;4923;52.520;13.494;2022-09-09T04:33:16;13.00;1.00
9768;DHT22;4923;52.520;13.494;2022-09-09T04:36:04;13.00;1.00
9768;DHT22;4923;52.520;13.494;2022-09-09T04:38:51;13.10;1.00
9768;DHT22;4923;52.520;13.494;2022-09-09T04:41:40;13.10;1.00
9768;DHT22;4923;52.520;13.494;2022-09-09T04:44:27;13.10;1.00
9768;DHT22;4923;52.520;13.494;2022-09-09T04:47:14;13.10;1.00
9768;DHT22;4923;52.520;13.494;2022-09-09T04:50:02;13.20;1.00
9768;DHT22;4923;52.520;13.494;2022-09-09T04:52:50;13.20;1.00
9768;DHT22;4923;52.520;13.494;2022-09-09T04:55:37;13.20;1.00
9768;DHT22;4923;52.520;13.494;2022-09-09T04:58:24;13.30;1.00
9768;DHT22;4923;52.520;13.494;2022-09-09T05:01:12;13.30;1.00
9768;DHT22;4923;52.520;13.494;2022-09-09T05:04:00;13.30;1.00
9768;DHT22;4923;52.520;13.494;2022-09-09T05:06:49;13.40;1.00
9768;DHT22;4923;52.520;13.494;2022-09-09T05:09:36;13.50;1.00
9768;DHT22;4923;52.520;13.494;2022-09-09T05:12:23;13.50;1.00
9768;DHT22;4923;52.520;13.494;2022-09-09T05:15:11;13.70;1.00
9768;DHT22;4923;52.520;13.494;2022-09-09T05:17:59;13.70;1.00
9768;DHT22;4923;52.520;13.494;2022-09-09T05:20:46;13.80;1.00
9768;DHT22;4923;52.520;13.494;2022-09-09T05:23:34;13.90;1.00
9768;DHT22;4923;52.520;13.494;2022-09-09T05:26:22;14.20;1.00
9768;DHT22;4923;52.520;13.494;2022-09-09T05:29:10;14.40;1.00
9768;DHT22;4923;52.520;13.494;2022-09-09T05:31:59;14.50;1.00
9768;DHT22;4923;52.520;13.494;2022-09-09T05:34:46;14.60;1.00
9768;DHT22;4923;52.520;13.494;2022-09-09T05:37:33;14.80;1.00
9768;DHT22;4923;52.520;13.494;2022-09-09T05:40:24;15.00;1.00
9768;DHT22;4923;52.520;13.494;2022-09-09T05:43:11;15.10;1.00
9768;DHT22;4923;52.520;13.494;2022-09-09T05:45:59;15.10;1.00
9768;DHT22;4923;52.520;13.494;2022-09-09T05:48:48;15.20;1.00
9768;DHT22;4923;52.520;13.494;2022-09-09T05:51:36;15.10;1.00
9768;DHT22;4923;52.520;13.494;2022-09-09T05:54:23;15.20;1.00
9768;DHT22;4923;52.520;13.494;2022-09-09T05:57:12;15.20;1.00
9768;DHT22;4923;52.520;13.494;2022-09-09T05:59:59;15.20;1.00
9768;DHT22;4923;52.520;13.494;2022-09-09T06:02:50;15.30;1.00
9768;DHT22;4923;52.520;13.494;2022-09-09T06:05:38;15.30;1.00
9768;DHT22;4923;52.520;13.494;2022-09-09T06:08:25;15.40;1.00
9768;DHT22;4923;52.520;13.494;2022-09-09T06:11:14;15.50;1.00
9768;DHT22;4923;52.520;13.494;2022-09-09T06:14:03;15.60;1.00
9768;DHT22;4923;52.520;13.494;2022-09-09T06:16:51;15.70;1.00
9768;DHT22;4923;52.520;13.494;2022-09-09T06:19:37;15.80;1.00
9768;DHT22;4923;52.520;13.494;2022-09-09T06:22:24;15.90;1.00
9768;DHT22;4923;52.520;13.494;2022-09-09T06:25:11;16.00;1.00
9768;DHT22;4923;52.520;13.494;2022-09-09T06:27:58;16.00;1.00
9768;DHT22;4923;52.520;13.494;2022-09-09T06:30:46;16.20;1.00
9768;DHT22;4923;52.520;13.494;2022-09-09T06:33:35;16.20;1.00
9768;DHT22;4923;52.520;13.494;2022-09-09T06:36:26;16.30;1.00
9768;DHT22;4923;52.520;13.494;2022-09-09T06:39:14;16.40;1.00
9768;DHT22;4923;52.520;13.494;2022-09-09T06:42:01;16.50;1.00
9768;DHT22;4923;52.520;13.494;2022-09-09T06:44:48;16.50;1.00
9768;DHT22;4923;52.520;13.494;2022-09-09T06:47:36;16.70;1.00
9768;DHT22;4923;52.520;13.494;2022-09-09T06:50:23;16.70;1.00
9768;DHT22;4923;52.520;13.494;2022-09-09T06:53:10;16.60;1.00
9768;DHT22;4923;52.520;13.494;2022-09-09T06:55:57;16.70;1.00
9768;DHT22;4923;52.520;13.494;2022-09-09T06:58:44;16.90;1.00
9768;DHT22;4923;52.520;13.494;2022-09-09T07:01:34;17.00;1.00
9768;DHT22;4923;52.520;13.494;2022-09-09T07:04:22;17.20;1.00
9768;DHT22;4923;52.520;13.494;2022-09-09T07:07:10;17.50;1.00
9768;DHT22;4923;52.520;13.494;2022-09-09T07:09:59;17.60;1.00
9768;DHT22;4923;52.520;13.494;2022-09-09T07:12:51;17.80;1.00
9768;DHT22;4923;52.520;13.494;2022-09-09T07:15:40;17.90;1.00
9768;DHT22;4923;52.520;13.494;2022-09-09T07:18:27;18.00;1.00
9768;DHT22;4923;52.520;13.494;2022-09-09T07:21:18;18.00;1.00
9768;DHT22;4923;52.520;13.494;2022-09-09T07:24:17;18.10;1.00
9768;DHT22;4923;52.520;13.494;2022-09-09T07:27:03;18.20;1.00
9768;DHT22;4923;52.520;13.494;2022-09-09T07:29:51;18.20;1.00
9768;DHT22;4923;52.520;13.494;2022-09-09T07:32:39;18.30;1.00
9768;DHT22;4923;52.520;13.494;2022-09-09T07:35:27;18.30;1.00
9768;DHT22;4923;52.520;13.494;2022-09-09T07:38:16;18.40;1.00
9768;DHT22;4923;52.520;13.494;2022-09-09T07:41:05;18.50;1.00
9768;DHT22;4923;52.520;13.494;2022-09-09T07:43:53;18.60;1.00
9768;DHT22;4923;52.520;13.494;2022-09-09T07:46:42;18.70;1.00
9768;DHT22;4923;52.520;13.494;2022-09-09T07:49:30;18.90;1.00
9768;DHT22;4923;52.520;13.494;2022-09-09T07:52:18;19.00;1.00
9768;DHT22;4923;52.520;13.494;2022-09-09T07:55:07;19.10;1.00
9768;DHT22;4923;52.520;13.494;2022-09-09T07:57:55;19.40;1.00
9768;DHT22;4923;52.520;13.494;2022-09-09T08:00:42;19.50;1.00
9768;DHT22;4923;52.520;13.494;2022-09-09T08:03:29;19.60;1.00
9768;DHT22;4923;52.520;13.494;2022-09-09T08:06:16;19.70;1.00
9768;DHT22;4923;52.520;13.494;2022-09-09T08:09:04;19.90;1.00
9768;DHT22;4923;52.520;13.494;2022-09-09T08:11:52;20.00;1.00
9768;DHT22;4923;52.520;13.494;2022-09-09T08:14:39;20.00;1.00
9768;DHT22;4923;52.520;13.494;2022-09-09T08:17:26;20.10;1.00
9768;DHT22;4923;52.520;13.494;2022-09-09T08:20:13;20.20;1.00
9768;DHT22;4923;52.520;13.494;2022-09-09T08:23:00;20.30;1.00
9768;DHT22;4923;52.520;13.494;2022-09-09T08:25:47;20.30;1.00
9768;DHT22;4923;52.520;13.494;2022-09-09T08:28:37;20.10;1.00
9768;DHT22;4923;52.520;13.494;2022-09-09T08:31:27;20.00;1.00
9768;DHT22;4923;52.520;13.494;2022-09-09T08:34:15;19.90;1.00
9768;DHT22;4923;52.520;13.494;2022-09-09T08:37:03;19.80;1.00
9768;DHT22;4923;52.520;13.494;2022-09-09T08:39:50;19.60;1.00
9768;DHT22;4923;52.520;13.494;2022-09-09T08:42:41;19.60;1.00
9768;DHT22;4923;52.520;13.494;2022-09-09T08:45:35;19.50;1.00
9768;DHT22;4923;52.520;13.494;2022-09-09T08:48:38;19.50;1.00
9768;DHT22;4923;52.520;13.494;2022-09-09T08:51:31;19.50;1.00
9768;DHT22;4923;52.520;13.494;2022-09-09T08:54:19;19.50;1.00
9768;DHT22;4923;52.520;13.494;2022-09-09T08:57:11;19.50;1.00
9768;DHT22;4923;52.520;13.494;2022-09-09T09:00:00;19.60;1.00
9768;DHT22;4923;52.520;13.494;2022-09-09T09:02:56;19.60;1.00
9768;DHT22;4923;52.520;13.494;2022-09-09T09:06:01;19.80;1.00
9768;DHT22;4923;52.520;13.494;2022-09-09T09:08:56;19.90;1.00
9768;DHT22;4923;52.520;13.494;2022-09-09T09:11:49;20.10;1.00
9768;DHT22;4923;52.520;13.494;2022-09-09T09:14:37;20.30;1.00
9768;DHT22;4923;52.520;13.494;2022-09-09T09:17:26;20.80;1.00
9768;DHT22;4923;52.520;13.494;2022-09-09T09:20:22;21.20;1.00
9768;DHT22;4923;52.520;13.494;2022-09-09T09:23:18;21.70;1.00
9768;DHT22;4923;52.520;13.494;2022-09-09T09:26:08;22.20;1.00
9768;DHT22;4923;52.520;13.494;2022-09-09T09:28:56;22.50;1.00
9768;DHT22;4923;52.520;13.494;2022-09-09T09:31:48;22.70;1.00
9768;DHT22;4923;52.520;13.494;2022-09-09T09:34:40;22.90;1.00
9768;DHT22;4923;52.520;13.494;2022-09-09T09:37:31;23.20;1.00
9768;DHT22;4923;52.520;13.494;2022-09-09T09:40:21;23.40;1.00
9768;DHT22;4923;52.520;13.494;2022-09-09T09:43:19;23.50;1.00
9768;DHT22;4923;52.520;13.494;2022-09-09T09:46:20;23.50;1.00
9768;DHT22;4923;52.520;13.494;2022-09-09T09:49:09;23.50;1.00
9768;DHT22;4923;52.520;13.494;2022-09-09T09:52:00;23.50;1.00
9768;DHT22;4923;52.520;13.494;2022-09-09T09:54:49;23.30;1.00
9768;DHT22;4923;52.520;13.494;2022-09-09T09:57:36;23.10;1.00
9768;DHT22;4923;52.520;13.494;2022-09-09T10:00:23;22.90;1.00
9768;DHT22;4923;52.520;13.494;2022-09-09T10:03:21;22.80;1.00
9768;DHT22;4923;52.520;13.494;2022-09-09T10:06:08;22.80;1.00
9768;DHT22;4923;52.520;13.494;2022-09-09T10:08:55;22.80;1.00
9768;DHT22;4923;52.520;13.494;2022-09-09T10:11:53;22.80;1.00
9768;DHT22;4923;52.520;13.494;2022-09-09T10:14:46;22.90;1.00
9768;DHT22;4923;52.520;13.494;2022-09-09T10:17:43;22.80;1.00
9768;DHT22;4923;52.520;13.494;2022-09-09T10:20:42;22.60;1.00
9768;DHT22;4923;52.520;13.494;2022-09-09T10:23:43;22.50;1.00
9768;DHT22;4923;52.520;13.494;2022-09-09T10:26:40;22.60;1.00
9768;DHT22;4923;52.520;13.494;2022-09-09T10:29:51;22.60;1.00
9768;DHT22;4923;52.520;13.494;2022-09-09T10:32:47;22.80;1.00
9768;DHT22;4923;52.520;13.494;2022-09-09T10:35:40;22.70;1.00
9768;DHT22;4923;52.520;13.494;2022-09-09T10:38:34;22.70;1.00
9768;DHT22;4923;52.520;13.494;2022-09-09T10:41:37;22.60;1.00
9768;DHT22;4923;52.520;13.494;2022-09-09T10:44:40;22.60;1.00
9768;DHT22;4923;52.520;13.494;2022-09-09T10:47:55;22.50;1.00
9768;DHT22;4923;52.520;13.494;2022-09-09T10:50:54;22.40;1.00
9768;DHT22;4923;52.520;13.494;2022-09-09T10:53:55;22.40;1.00
9768;DHT22;4923;52.520;13.494;2022-09-09T10:56:51;22.40;1.00
9768;DHT22;4923;52.520;13.494;2022-09-09T10:59:45;22.30;1.00
9768;DHT22;4923;52.520;13.494;2022-09-09T11:02:34;22.10;1.00
9768;DHT22;4923;52.520;13.494;2022-09-09T11:05:29;22.40;1.00
9768;DHT22;4923;52.520;13.494;2022-09-09T11:08:21;22.60;1.00
9768;DHT22;4923;52.520;13.494;2022-09-09T11:11:12;22.90;1.00
9768;DHT22;4923;52.520;13.494;2022-09-09T11:14:09;23.10;1.00
9768;DHT22;4923;52.520;13.494;2022-09-09T11:17:00;23.10;1.00
9768;DHT22;4923;52.520;13.494;2022-09-09T11:19:47;23.20;1.00
9768;DHT22;4923;52.520;13.494;2022-09-09T11:22:38;23.30;1.00
9768;DHT22;4923;52.520;13.494;2022-09-09T11:25:30;23.40;1.00
9768;DHT22;4923;52.520;13.494;2022-09-09T11:28:29;23.50;1.00
9768;DHT22;4923;52.520;13.494;2022-09-09T11:31:38;23.60;1.00
9768;DHT22;4923;52.520;13.494;2022-09-09T11:34:42;23.60;1.00
9768;DHT22;4923;52.520;13.494;2022-09-09T11:40:32;23.70;1.00
9768;DHT22;4923;52.520;13.494;2022-09-09T11:43:24;24.20;1.00
9768;DHT22;4923;52.520;13.494;2022-09-09T11:46:14;24.40;1.00
9768;DHT22;4923;52.520;13.494;2022-09-09T11:49:21;24.50;1.00
9768;DHT22;4923;52.520;13.494;2022-09-09T11:52:13;24.60;1.00
9768;DHT22;4923;52.520;13.494;2022-09-09T11:55:11;24.70;1.00
9768;DHT22;4923;52.520;13.494;2022-09-09T11:58:02;25.10;1.00
9768;DHT22;4923;52.520;13.494;2022-09-09T12:00:49;25.40;1.00
9768;DHT22;4923;52.520;13.494;2022-09-09T12:03:42;25.10;1.00
9768;DHT22;4923;52.520;13.494;2022-09-09T12:06:31;24.90;1.00
9768;DHT22;4923;52.520;13.494;2022-09-09T12:09:27;24.70;1.00
9768;DHT22;4923;52.520;13.494;2022-09-09T12:12:25;24.50;1.00
9768;DHT22;4923;52.520;13.494;2022-09-09T12:15:25;24.50;1.00
9768;DHT22;4923;52.520;13.494;2022-09-09T12:18:22;24.60;1.00
9768;DHT22;4923;52.520;13.494;2022-09-09T12:21:18;24.90;1.00
9768;DHT22;4923;52.520;13.494;2022-09-09T12:24:09;24.90;1.00
9768;DHT22;4923;52.520;13.494;2022-09-09T12:27:02;24.90;1.00
9768;DHT22;4923;52.520;13.494;2022-09-09T12:29:57;24.90;1.00
9768;DHT22;4923;52.520;13.494;2022-09-09T12:33:00;24.80;1.00
9768;DHT22;4923;52.520;13.494;2022-09-09T12:35:52;24.60;1.00
9768;DHT22;4923;52.520;13.494;2022-09-09T12:38:42;24.50;1.00
9768;DHT22;4923;52.520;13.494;2022-09-09T12:41:30;24.30;1.00
9768;DHT22;4923;52.520;13.494;2022-09-09T12:44:16;24.20;1.00
9768;DHT22;4923;52.520;13.494;2022-09-09T12:47:05;24.10;1.00
9768;DHT22;4923;52.520;13.494;2022-09-09T12:49:53;24.00;1.00
9768;DHT22;4923;52.520;13.494;2022-09-09T12:52:42;24.00;1.00
9768;DHT22;4923;52.520;13.494;2022-09-09T12:55:32;23.80;1.00
9768;DHT22;4923;52.520;13.494;2022-09-09T12:58:21;23.70;1.00
9768;DHT22;4923;52.520;13.494;2022-09-09T13:01:20;23.70;1.00
9768;DHT22;4923;52.520;13.494;2022-09-09T13:04:19;23.70;1.00
9768;DHT22;4923;52.520;13.494;2022-09-09T13:07:09;23.80;1.00
9768;DHT22;4923;52.520;13.494;2022-09-09T13:09:57;24.00;1.00
9768;DHT22;4923;52.520;13.494;2022-09-09T13:12:44;24.10;1.00
9768;DHT22;4923;52.520;13.494;2022-09-09T13:15:31;24.10;1.00
9768;DHT22;4923;52.520;13.494;2022-09-09T13:18:22;24.10;1.00
9768;DHT22;4923;52.520;13.494;2022-09-09T13:21:10;24.20;1.00
9768;DHT22;4923;52.520;13.494;2022-09-09T13:23:58;24.30;1.00
9768;DHT22;4923;52.520;13.494;2022-09-09T13:26:54;24.40;1.00
9768;DHT22;4923;52.520;13.494;2022-09-09T13:29:51;24.50;1.00
9768;DHT22;4923;52.520;13.494;2022-09-09T13:32:38;24.50;1.00
9768;DHT22;4923;52.520;13.494;2022-09-09T13:35:25;24.50;1.00
9768;DHT22;4923;52.520;13.494;2022-09-09T13:38:13;24.70;1.00
9768;DHT22;4923;52.520;13.494;2022-09-09T13:41:04;24.70;1.00
9768;DHT22;4923;52.520;13.494;2022-09-09T13:43:52;24.80;1.00
9768;DHT22;4923;52.520;13.494;2022-09-09T13:46:41;24.90;1.00
9768;DHT22;4923;52.520;13.494;2022-09-09T13:49:30;24.90;1.00
9768;DHT22;4923;52.520;13.494;2022-09-09T13:52:19;25.10;1.00
9768;DHT22;4923;52.520;13.494;2022-09-09T13:55:09;25.10;1.00
9768;DHT22;4923;52.520;13.494;2022-09-09T13:57:58;25.40;1.00
9768;DHT22;4923;52.520;13.494;2022-09-09T14:00:46;25.70;1.00
9768;DHT22;4923;52.520;13.494;2022-09-09T14:03:33;25.80;1.00
9768;DHT22;4923;52.520;13.494;2022-09-09T14:06:20;25.90;1.00
9768;DHT22;4923;52.520;13.494;2022-09-09T14:09:12;25.80;1.00
9768;DHT22;4923;52.520;13.494;2022-09-09T14:12:00;25.70;1.00
9768;DHT22;4923;52.520;13.494;2022-09-09T14:14:49;25.50;1.00
9768;DHT22;4923;52.520;13.494;2022-09-09T14:17:36;25.40;1.00
9768;DHT22;4923;52.520;13.494;2022-09-09T14:20:23;25.20;1.00
9768;DHT22;4923;52.520;13.494;2022-09-09T14:23:11;25.00;1.00
9768;DHT22;4923;52.520;13.494;2022-09-09T14:25:58;24.90;1.00
9768;DHT22;4923;52.520;13.494;2022-09-09T14:28:46;25.00;1.00
9768;DHT22;4923;52.520;13.494;2022-09-09T14:31:34;25.10;1.00
9768;DHT22;4923;52.520;13.494;2022-09-09T14:34:21;25.30;1.00
9768;DHT22;4923;52.520;13.494;2022-09-09T14:37:11;25.30;1.00
9768;DHT22;4923;52.520;13.494;2022-09-09T14:39:59;25.40;1.00
9768;DHT22;4923;52.520;13.494;2022-09-09T14:42:46;25.50;1.00
9768;DHT22;4923;52.520;13.494;2022-09-09T14:45:33;25.70;1.00
9768;DHT22;4923;52.520;13.494;2022-09-09T14:48:24;25.70;1.00
9768;DHT22;4923;52.520;13.494;2022-09-09T14:51:14;25.60;1.00
9768;DHT22;4923;52.520;13.494;2022-09-09T14:54:02;25.50;1.00
9768;DHT22;4923;52.520;13.494;2022-09-09T14:56:49;25.40;1.00
9768;DHT22;4923;52.520;13.494;2022-09-09T14:59:36;25.20;1.00
9768;DHT22;4923;52.520;13.494;2022-09-09T15:02:23;25.00;1.00
9768;DHT22;4923;52.520;13.494;2022-09-09T15:05:11;24.50;1.00
9768;DHT22;4923;52.520;13.494;2022-09-09T15:07:58;24.20;1.00
9768;DHT22;4923;52.520;13.494;2022-09-09T15:10:45;24.00;1.00
9768;DHT22;4923;52.520;13.494;2022-09-09T15:13:36;23.90;1.00
9768;DHT22;4923;52.520;13.494;2022-09-09T15:16:25;23.80;1.00
9768;DHT22;4923;52.520;13.494;2022-09-09T15:19:13;23.70;1.00
9768;DHT22;4923;52.520;13.494;2022-09-09T15:22:01;23.70;1.00
9768;DHT22;4923;52.520;13.494;2022-09-09T15:24:48;23.80;1.00
9768;DHT22;4923;52.520;13.494;2022-09-09T15:27:35;23.90;1.00
9768;DHT22;4923;52.520;13.494;2022-09-09T15:30:25;24.20;1.00
9768;DHT22;4923;52.520;13.494;2022-09-09T15:33:13;24.40;1.00
9768;DHT22;4923;52.520;13.494;2022-09-09T15:36:00;24.60;1.00
9768;DHT22;4923;52.520;13.494;2022-09-09T15:38:49;24.70;1.00
9768;DHT22;4923;52.520;13.494;2022-09-09T15:41:36;24.70;1.00
9768;DHT22;4923;52.520;13.494;2022-09-09T15:44:23;24.80;1.00
9768;DHT22;4923;52.520;13.494;2022-09-09T15:47:11;24.80;1.00
9768;DHT22;4923;52.520;13.494;2022-09-09T15:49:59;24.50;1.00
9768;DHT22;4923;52.520;13.494;2022-09-09T15:52:47;24.30;1.00
9768;DHT22;4923;52.520;13.494;2022-09-09T15:55:36;24.10;1.00
9768;DHT22;4923;52.520;13.494;2022-09-09T15:58:23;23.80;1.00
9768;DHT22;4923;52.520;13.494;2022-09-09T16:01:10;23.70;1.00
9768;DHT22;4923;52.520;13.494;2022-09-09T16:03:58;23.60;1.00
9768;DHT22;4923;52.520;13.494;2022-09-09T16:06:45;23.40;1.00
9768;DHT22;4923;52.520;13.494;2022-09-09T16:09:34;23.30;1.00
9768;DHT22;4923;52.520;13.494;2022-09-09T16:12:23;23.30;1.00
9768;DHT22;4923;52.520;13.494;2022-09-09T16:15:10;23.20;1.00
9768;DHT22;4923;52.520;13.494;2022-09-09T16:17:58;23.20;1.00
9768;DHT22;4923;52.520;13.494;2022-09-09T16:20:53;23.20;1.00
9768;DHT22;4923;52.520;13.494;2022-09-09T16:23:40;23.20;1.00
9768;DHT22;4923;52.520;13.494;2022-09-09T16:26:28;23.10;1.00
9768;DHT22;4923;52.520;13.494;2022-09-09T16:29:18;23.00;1.00
9768;DHT22;4923;52.520;13.494;2022-09-09T16:32:05;23.00;1.00
9768;DHT22;4923;52.520;13.494;2022-09-09T16:34:53;22.80;1.00
9768;DHT22;4923;52.520;13.494;2022-09-09T16:37:40;22.80;1.00
9768;DHT22;4923;52.520;13.494;2022-09-09T16:40:28;22.60;1.00
9768;DHT22;4923;52.520;13.494;2022-09-09T16:43:16;22.50;1.00
9768;DHT22;4923;52.520;13.494;2022-09-09T16:46:12;22.30;1.00
9768;DHT22;4923;52.520;13.494;2022-09-09T16:49:00;22.30;1.00
9768;DHT22;4923;52.520;13.494;2022-09-09T16:51:49;22.10;1.00
9768;DHT22;4923;52.520;13.494;2022-09-09T16:54:38;21.90;1.00
9768;DHT22;4923;52.520;13.494;2022-09-09T16:57:25;21.70;1.00
9768;DHT22;4923;52.520;13.494;2022-09-09T17:00:16;21.50;1.00
9768;DHT22;4923;52.520;13.494;2022-09-09T17:03:04;21.40;1.00
9768;DHT22;4923;52.520;13.494;2022-09-09T17:05:51;21.20;1.00
9768;DHT22;4923;52.520;13.494;2022-09-09T17:08:39;21.00;1.00
9768;DHT22;4923;52.520;13.494;2022-09-09T17:11:31;20.80;1.00
9768;DHT22;4923;52.520;13.494;2022-09-09T17:14:21;20.70;1.00
9768;DHT22;4923;52.520;13.494;2022-09-09T17:17:14;20.60;1.00
9768;DHT22;4923;52.520;13.494;2022-09-09T17:20:10;20.40;1.00
9768;DHT22;4923;52.520;13.494;2022-09-09T17:22:57;20.20;1.00
9768;DHT22;4923;52.520;13.494;2022-09-09T17:25:44;20.00;1.00
9768;DHT22;4923;52.520;13.494;2022-09-09T17:28:31;19.90;1.00
9768;DHT22;4923;52.520;13.494;2022-09-09T17:31:18;19.70;1.00
9768;DHT22;4923;52.520;13.494;2022-09-09T17:34:11;19.50;1.00
9768;DHT22;4923;52.520;13.494;2022-09-09T17:36:59;19.40;1.00
9768;DHT22;4923;52.520;13.494;2022-09-09T17:39:46;19.20;1.00
9768;DHT22;4923;52.520;13.494;2022-09-09T17:42:33;19.00;1.00
9768;DHT22;4923;52.520;13.494;2022-09-09T17:45:20;18.80;1.00
9768;DHT22;4923;52.520;13.494;2022-09-09T17:48:12;18.70;1.00
9768;DHT22;4923;52.520;13.494;2022-09-09T17:51:03;18.60;1.00
9768;DHT22;4923;52.520;13.494;2022-09-09T17:53:52;18.50;1.00
9768;DHT22;4923;52.520;13.494;2022-09-09T17:56:42;18.40;1.00
9768;DHT22;4923;52.520;13.494;2022-09-09T17:59:42;18.30;1.00
9768;DHT22;4923;52.520;13.494;2022-09-09T18:02:33;18.20;1.00
9768;DHT22;4923;52.520;13.494;2022-09-09T18:05:20;18.10;1.00
9768;DHT22;4923;52.520;13.494;2022-09-09T18:08:07;18.00;1.00
9768;DHT22;4923;52.520;13.494;2022-09-09T18:10:55;17.90;1.00
9768;DHT22;4923;52.520;13.494;2022-09-09T18:13:42;17.70;1.00
9768;DHT22;4923;52.520;13.494;2022-09-09T18:16:30;17.60;1.00
9768;DHT22;4923;52.520;13.494;2022-09-09T18:19:20;17.50;1.00
9768;DHT22;4923;52.520;13.494;2022-09-09T18:22:08;17.40;1.00
9768;DHT22;4923;52.520;13.494;2022-09-09T18:24:55;17.30;1.00
9768;DHT22;4923;52.520;13.494;2022-09-09T18:27:43;17.20;1.00
9768;DHT22;4923;52.520;13.494;2022-09-09T18:30:31;17.10;1.00
9768;DHT22;4923;52.520;13.494;2022-09-09T18:33:19;17.10;1.00
9768;DHT22;4923;52.520;13.494;2022-09-09T18:36:11;17.00;1.00